createdAt,value
2022-10-15T00:01:12.080Z,42.02
2022-10-15T00:02:14.243Z,44.19
2022-10-15T00:03:17.334Z,44.71
2022-10-15T00:04:19.073Z,45.03
2022-10-15T00:05:21.052Z,44.64
2022-10-15T00:06:22.747Z,44.69
2022-10-15T00:07:25.242Z,44.56
2022-10-15T00:08:27.098Z,44.99
2022-10-15T00:09:29.284Z,43.86
2022-10-15T00:10:31.176Z,44.11
2022-10-15T00:11:32.989Z,43.89
2022-10-15T00:12:34.872Z,43.72
2022-10-15T00:13:38.047Z,43.67
2022-10-15T00:14:39.733Z,42.74
2022-10-15T00:15:41.437Z,42.42
2022-10-15T00:16:43.214Z,42.43
2022-10-15T00:17:45.006Z,43.26
2022-10-15T00:18:48.155Z,43.31
2022-10-15T00:19:49.867Z,42.57
2022-10-15T00:20:51.565Z,43.17
2022-10-15T00:21:53.281Z,43.22
2022-10-15T00:22:55.021Z,43.72
2022-10-15T00:23:57.125Z,44.19
2022-10-15T00:24:59.150Z,42.68
2022-10-15T00:26:13.299Z,42.35
2022-10-15T00:27:15.556Z,42.98
2022-10-15T00:28:17.357Z,41.85
2022-10-15T00:29:19.176Z,42.17
2022-10-15T00:30:21.059Z,41.01
2022-10-15T00:31:26.380Z,41.03
2022-10-15T00:32:28.126Z,41.30
2022-10-15T00:33:29.982Z,41.92
2022-10-15T00:34:32.289Z,42.38
2022-10-15T00:35:34.192Z,41.52
2022-10-15T00:36:36.826Z,41.70
2022-10-15T00:37:38.823Z,42.96
2022-10-15T00:38:40.857Z,41.76
2022-10-15T00:39:42.675Z,41.78
2022-10-15T00:40:44.774Z,43.00
2022-10-15T00:41:47.404Z,40.95
2022-10-15T00:42:50.004Z,41.23
2022-10-15T00:43:55.772Z,41.35
2022-10-15T00:44:59.354Z,41.26
2022-10-15T00:46:01.433Z,40.12
2022-10-15T00:47:35.838Z,39.03
2022-10-15T00:48:37.610Z,39.01
2022-10-15T00:49:47.286Z,38.62
2022-10-15T00:50:49.286Z,39.26
2022-10-15T00:52:10.697Z,40.15
2022-10-15T00:53:12.910Z,39.70
2022-10-15T00:54:16.072Z,40.04
2022-10-15T00:55:28.531Z,40.71
2022-10-15T00:56:33.323Z,39.64
2022-10-15T00:57:35.570Z,40.55
2022-10-15T00:58:37.603Z,40.69
2022-10-15T00:59:44.524Z,39.25
2022-10-15T01:00:46.442Z,38.85
2022-10-15T01:01:48.341Z,39.19
2022-10-15T01:02:50.225Z,38.83
2022-10-15T01:03:55.714Z,39.35
2022-10-15T01:04:57.485Z,37.70
2022-10-15T01:05:59.418Z,38.67
2022-10-15T01:07:01.398Z,37.70
2022-10-15T01:08:03.138Z,38.25
2022-10-15T01:09:06.226Z,38.64
2022-10-15T01:10:10.993Z,39.11
2022-10-15T01:11:42.812Z,38.85
2022-10-15T01:13:24.068Z,38.76
2022-10-15T01:14:34.445Z,39.32
2022-10-15T01:15:55.566Z,39.02
2022-10-15T01:17:18.757Z,38.37
2022-10-15T01:18:28.410Z,38.66
2022-10-15T01:20:08.347Z,37.36
2022-10-15T01:21:22.153Z,38.97
2022-10-15T01:22:43.306Z,38.05
2022-10-15T01:23:59.856Z,39.22
2022-10-15T01:25:34.248Z,38.67
2022-10-15T01:27:17.397Z,39.89
2022-10-15T01:28:37.697Z,40.26
2022-10-15T01:29:54.215Z,40.38
2022-10-15T01:31:19.562Z,41.00
2022-10-15T01:32:27.308Z,41.97
2022-10-15T01:33:37.110Z,40.99
2022-10-15T01:35:04.108Z,40.68
2022-10-15T01:36:43.043Z,41.11
2022-10-15T01:37:59.786Z,38.91
2022-10-15T01:39:13.869Z,40.17
2022-10-15T01:40:26.822Z,39.43
2022-10-15T01:41:51.947Z,40.88
2022-10-15T01:43:00.743Z,39.39
2022-10-15T01:44:22.441Z,41.92
2022-10-15T01:46:02.687Z,40.79
2022-10-15T01:47:38.050Z,40.16
2022-10-15T01:48:41.957Z,41.64
2022-10-15T01:49:47.754Z,41.31
2022-10-15T01:50:55.753Z,40.68
2022-10-15T01:52:03.160Z,40.21
2022-10-15T01:53:10.114Z,38.93
2022-10-15T01:54:18.602Z,38.43
2022-10-15T01:55:22.644Z,39.86
2022-10-15T01:56:26.820Z,38.94
2022-10-15T01:57:33.140Z,40.48
2022-10-15T01:58:40.167Z,40.06
2022-10-15T01:59:43.876Z,40.52
2022-10-15T02:00:47.615Z,40.33
2022-10-15T02:01:49.827Z,39.27
2022-10-15T02:02:51.760Z,38.68
2022-10-15T02:03:54.725Z,39.50
2022-10-15T02:04:56.409Z,40.40
2022-10-15T02:06:13.578Z,40.63
2022-10-15T02:07:28.382Z,40.88
2022-10-15T02:09:05.620Z,40.88
2022-10-15T02:10:21.733Z,41.11
2022-10-15T02:11:23.662Z,40.57
2022-10-15T02:12:32.353Z,41.63
2022-10-15T02:13:56.424Z,40.05
2022-10-15T02:15:08.134Z,40.13
2022-10-15T02:16:20.141Z,40.84
2022-10-15T02:17:45.753Z,39.57
2022-10-15T02:19:12.856Z,40.96
2022-10-15T02:20:23.572Z,40.61
2022-10-15T02:21:40.260Z,42.61
2022-10-15T02:22:51.243Z,41.88
2022-10-15T02:24:03.312Z,41.11
2022-10-15T02:25:13.114Z,39.83
2022-10-15T02:26:17.381Z,40.46
2022-10-15T02:27:21.464Z,41.31
2022-10-15T02:28:28.240Z,39.62
2022-10-15T02:29:34.961Z,39.54
2022-10-15T02:30:42.425Z,39.95
2022-10-15T02:31:50.102Z,39.03
2022-10-15T02:32:58.480Z,39.14
2022-10-15T02:34:07.094Z,39.27
2022-10-15T02:35:12.672Z,38.75
2022-10-15T02:36:19.177Z,39.90
2022-10-15T02:37:24.612Z,38.54
2022-10-15T02:38:31.325Z,39.21
2022-10-15T02:39:34.552Z,38.39
2022-10-15T02:40:40.025Z,39.11
2022-10-15T02:41:42.090Z,39.36
2022-10-15T02:42:45.091Z,37.24
2022-10-15T02:43:47.430Z,39.18
2022-10-15T02:44:49.207Z,38.32
2022-10-15T02:45:51.099Z,37.56
2022-10-15T02:46:52.991Z,38.45
2022-10-15T02:47:54.820Z,37.92
2022-10-15T02:48:56.522Z,37.31
2022-10-15T02:49:58.200Z,37.17
2022-10-15T02:50:59.884Z,38.14
2022-10-15T02:52:01.578Z,36.69
2022-10-15T02:53:03.801Z,37.04
2022-10-15T02:54:07.172Z,36.51
2022-10-15T02:55:09.248Z,35.96
2022-10-15T02:56:11.136Z,35.14
2022-10-15T02:57:12.845Z,36.58
2022-10-15T02:58:15.063Z,36.06
2022-10-15T02:59:19.676Z,35.73
2022-10-15T03:00:21.758Z,36.72
2022-10-15T03:01:24.320Z,37.11
2022-10-15T03:02:26.029Z,36.73
2022-10-15T03:03:27.851Z,36.21
2022-10-15T03:04:29.802Z,35.13
2022-10-15T03:05:34.751Z,35.02
2022-10-15T03:06:36.500Z,35.55
2022-10-15T03:07:38.380Z,35.09
2022-10-15T03:08:40.202Z,35.03
2022-10-15T03:09:42.671Z,34.43
2022-10-15T03:10:45.715Z,33.85
2022-10-15T03:11:47.686Z,34.32
2022-10-15T03:12:49.725Z,35.23
2022-10-15T03:13:51.718Z,34.30
2022-10-15T03:14:53.845Z,33.13
2022-10-15T03:15:56.615Z,34.15
2022-10-15T03:16:58.370Z,33.69
2022-10-15T03:18:00.763Z,35.23
2022-10-15T03:19:03.008Z,36.07
2022-10-15T03:20:05.715Z,36.08
2022-10-15T03:21:09.999Z,34.76
2022-10-15T03:22:11.882Z,33.94
2022-10-15T03:23:22.914Z,35.04
2022-10-15T03:24:25.236Z,34.29
2022-10-15T03:25:27.355Z,32.78
2022-10-15T03:26:34.477Z,34.76
2022-10-15T03:27:36.224Z,32.78
2022-10-15T03:28:41.100Z,33.18
2022-10-15T03:29:42.865Z,33.63
2022-10-15T03:30:44.650Z,33.17
2022-10-15T03:31:46.712Z,34.15
2022-10-15T03:32:48.516Z,34.42
2022-10-15T03:33:50.683Z,33.65
2022-10-15T03:34:52.622Z,34.49
2022-10-15T03:35:54.693Z,34.53
2022-10-15T03:36:56.647Z,33.28
2022-10-15T03:37:58.377Z,32.46
2022-10-15T03:39:00.624Z,33.00
2022-10-15T03:40:02.361Z,32.51
2022-10-15T03:41:04.684Z,32.81
2022-10-15T03:42:10.522Z,33.08
2022-10-15T03:43:19.514Z,32.39
2022-10-15T03:44:21.553Z,31.04
2022-10-15T03:45:32.335Z,32.11
2022-10-15T03:46:45.721Z,32.87
2022-10-15T03:47:47.824Z,31.67
2022-10-15T03:48:50.781Z,32.70
2022-10-15T03:49:52.533Z,32.75
2022-10-15T03:50:54.431Z,34.55
2022-10-15T03:51:56.129Z,32.87
2022-10-15T03:52:58.658Z,33.02
2022-10-15T03:54:00.401Z,33.59
2022-10-15T03:55:03.124Z,32.34
2022-10-15T03:56:06.003Z,33.11
2022-10-15T03:57:08.149Z,33.20
2022-10-15T03:58:14.155Z,33.41
2022-10-15T03:59:22.682Z,32.09
2022-10-15T04:00:31.600Z,32.13
2022-10-15T04:01:34.954Z,32.43
2022-10-15T04:02:37.528Z,32.98
2022-10-15T04:03:39.633Z,31.94
2022-10-15T04:04:41.296Z,33.26
2022-10-15T04:05:53.769Z,32.87
2022-10-15T04:06:57.540Z,33.04
2022-10-15T04:07:59.302Z,33.49
2022-10-15T04:09:01.766Z,31.89
2022-10-15T04:10:04.031Z,32.94
2022-10-15T04:11:11.289Z,33.39
2022-10-15T04:12:14.424Z,34.19
2022-10-15T04:13:16.083Z,33.77
2022-10-15T04:14:19.520Z,32.87
2022-10-15T04:15:21.392Z,33.73
2022-10-15T04:16:27.363Z,33.36
2022-10-15T04:17:29.658Z,34.46
2022-10-15T04:18:32.832Z,33.85
2022-10-15T04:19:34.895Z,32.73
2022-10-15T04:20:38.366Z,32.69
2022-10-15T04:21:51.967Z,31.29
2022-10-15T04:23:04.177Z,32.94
2022-10-15T04:24:06.110Z,33.33
2022-10-15T04:25:13.582Z,34.23
2022-10-15T04:26:15.306Z,33.87
2022-10-15T04:27:17.110Z,33.87
2022-10-15T04:28:19.436Z,32.01
2022-10-15T04:29:21.435Z,33.23
2022-10-15T04:30:23.400Z,33.27
2022-10-15T04:31:29.921Z,33.08
2022-10-15T04:32:32.001Z,33.14
2022-10-15T04:33:34.321Z,33.82
2022-10-15T04:34:36.111Z,33.17
2022-10-15T04:35:37.859Z,31.36
2022-10-15T04:36:43.184Z,33.14
2022-10-15T04:37:49.093Z,31.48
2022-10-15T04:38:51.137Z,31.52
2022-10-15T04:40:03.270Z,32.04
2022-10-15T04:41:09.459Z,32.42
2022-10-15T04:42:24.956Z,32.00
2022-10-15T04:43:28.172Z,31.04
2022-10-15T04:44:33.130Z,32.19
2022-10-15T04:45:34.788Z,32.04
2022-10-15T04:46:36.541Z,33.27
2022-10-15T04:47:46.026Z,31.46
2022-10-15T04:48:50.091Z,31.29
2022-10-15T04:49:52.538Z,31.80
2022-10-15T04:51:27.077Z,30.89
2022-10-15T04:52:48.610Z,31.51
2022-10-15T04:53:51.404Z,30.31
2022-10-15T04:54:53.389Z,31.67
2022-10-15T04:56:00.584Z,31.52
2022-10-15T04:57:04.079Z,30.27
2022-10-15T04:58:05.922Z,31.60
2022-10-15T04:59:08.612Z,31.73
2022-10-15T05:00:16.083Z,32.43
2022-10-15T05:01:20.346Z,32.20
2022-10-15T05:02:42.641Z,33.19
2022-10-15T05:04:00.383Z,31.84
2022-10-15T05:05:02.620Z,31.14
2022-10-15T05:06:11.151Z,31.47
2022-10-15T05:07:13.282Z,31.54
2022-10-15T05:08:16.077Z,30.95
2022-10-15T05:09:37.468Z,31.62
2022-10-15T05:10:39.322Z,31.30
2022-10-15T05:11:41.592Z,31.33
2022-10-15T05:12:46.204Z,30.77
2022-10-15T05:13:48.520Z,31.15
2022-10-15T05:14:50.145Z,30.00
2022-10-15T05:15:57.975Z,30.61
2022-10-15T05:17:00.372Z,30.09
2022-10-15T05:18:02.067Z,31.31
2022-10-15T05:19:11.548Z,30.80
2022-10-15T05:20:13.436Z,31.40
2022-10-15T05:21:16.176Z,31.15
2022-10-15T05:22:18.129Z,30.40
2022-10-15T05:23:25.717Z,30.55
2022-10-15T05:24:34.213Z,29.06
2022-10-15T05:25:39.752Z,29.24
2022-10-15T05:26:41.427Z,30.19
2022-10-15T05:27:43.552Z,31.17
2022-10-15T05:28:46.296Z,30.43
2022-10-15T05:29:55.471Z,29.29
2022-10-15T05:31:17.589Z,30.88
2022-10-15T05:33:27.803Z,30.40
2022-10-15T05:34:30.630Z,31.17
2022-10-15T05:35:35.944Z,31.07
2022-10-15T05:36:38.477Z,32.28
2022-10-15T05:37:40.174Z,30.95
2022-10-15T05:38:42.431Z,30.02
2022-10-15T05:39:44.320Z,31.75
2022-10-15T05:40:49.883Z,30.43
2022-10-15T05:41:58.174Z,30.23
2022-10-15T05:43:19.173Z,29.26
2022-10-15T05:44:23.121Z,29.92
2022-10-15T05:45:24.859Z,30.59
2022-10-15T05:46:27.945Z,31.28
2022-10-15T05:47:29.999Z,29.75
2022-10-15T05:48:55.121Z,31.87
2022-10-15T05:49:57.265Z,31.57
2022-10-15T05:51:08.205Z,31.81
2022-10-15T05:52:09.885Z,32.14
2022-10-15T05:53:40.684Z,33.32
2022-10-15T05:54:43.236Z,31.93
2022-10-15T05:55:44.939Z,30.80
2022-10-15T05:56:46.617Z,29.58
2022-10-15T05:57:48.272Z,31.21
2022-10-15T05:58:50.828Z,31.01
2022-10-15T05:59:52.823Z,31.73
2022-10-15T06:00:55.684Z,30.35
2022-10-15T06:01:57.440Z,29.68
2022-10-15T06:02:59.581Z,30.30
2022-10-15T06:04:01.460Z,30.38
2022-10-15T06:05:06.761Z,29.24
2022-10-15T06:06:17.691Z,29.43
2022-10-15T06:07:20.277Z,32.65
2022-10-15T06:08:23.415Z,31.61
2022-10-15T06:09:25.556Z,31.60
2022-10-15T06:10:28.477Z,32.48
2022-10-15T06:11:30.286Z,31.25
2022-10-15T06:12:31.961Z,32.28
2022-10-15T06:13:33.623Z,33.49
2022-10-15T06:14:35.530Z,32.23
2022-10-15T06:15:42.810Z,29.96
2022-10-15T06:16:44.828Z,31.92
2022-10-15T06:17:46.543Z,30.88
2022-10-15T06:18:48.281Z,32.29
2022-10-15T06:19:50.030Z,30.58
2022-10-15T06:20:53.467Z,30.29
2022-10-15T06:21:55.113Z,32.09
2022-10-15T06:23:01.069Z,33.32
2022-10-15T06:24:05.142Z,32.73
2022-10-15T06:25:09.914Z,31.77
2022-10-15T06:26:11.946Z,31.83
2022-10-15T06:27:14.042Z,30.56
2022-10-15T06:28:15.832Z,31.12
2022-10-15T06:29:17.506Z,31.81
2022-10-15T06:30:20.996Z,32.41
2022-10-15T06:31:23.650Z,32.74
2022-10-15T06:32:25.363Z,31.92
2022-10-15T06:33:28.571Z,31.81
2022-10-15T06:34:30.559Z,31.09
2022-10-15T06:35:35.391Z,31.57
2022-10-15T06:36:38.360Z,31.40
2022-10-15T06:37:40.005Z,31.16
2022-10-15T06:38:44.276Z,30.69
2022-10-15T06:39:46.745Z,30.01
2022-10-15T06:40:48.408Z,31.01
2022-10-15T06:41:50.042Z,30.86
2022-10-15T06:42:51.684Z,30.69
2022-10-15T06:43:54.559Z,31.26
2022-10-15T06:44:56.456Z,30.38
2022-10-15T06:45:59.745Z,32.12
2022-10-15T06:47:01.643Z,31.10
2022-10-15T06:48:04.994Z,31.55
2022-10-15T06:49:07.317Z,32.14
2022-10-15T06:50:10.066Z,32.51
2022-10-15T06:51:11.885Z,32.01
2022-10-15T06:52:13.571Z,31.66
2022-10-15T06:53:16.713Z,31.61
2022-10-15T06:54:18.623Z,32.04
2022-10-15T06:55:20.267Z,31.52
2022-10-15T06:56:21.969Z,30.77
2022-10-15T06:57:25.971Z,29.99
2022-10-15T06:58:28.279Z,31.81
2022-10-15T06:59:29.946Z,31.02
2022-10-15T07:00:33.045Z,31.60
2022-10-15T07:01:37.206Z,31.62
2022-10-15T07:02:42.165Z,33.06
2022-10-15T07:03:43.809Z,30.51
2022-10-15T07:04:46.492Z,30.56
2022-10-15T07:05:52.747Z,31.77
2022-10-15T07:06:54.386Z,31.90
2022-10-15T07:07:57.794Z,31.32
2022-10-15T07:09:02.929Z,31.09
2022-10-15T07:10:05.622Z,30.94
2022-10-15T07:11:09.453Z,31.19
2022-10-15T07:12:11.196Z,31.36
2022-10-15T07:13:13.037Z,31.50
2022-10-15T07:14:14.738Z,30.46
2022-10-15T07:15:17.802Z,29.84
2022-10-15T07:16:19.434Z,29.39
2022-10-15T07:17:21.068Z,31.39
2022-10-15T07:18:23.188Z,30.88
2022-10-15T07:19:25.626Z,29.00
2022-10-15T07:20:29.657Z,29.53
2022-10-15T07:21:32.493Z,31.32
2022-10-15T07:22:34.144Z,30.78
2022-10-15T07:23:35.796Z,30.76
2022-10-15T07:24:37.494Z,31.50
2022-10-15T07:25:39.300Z,31.29
2022-10-15T07:26:40.968Z,30.24
2022-10-15T07:27:42.694Z,31.29
2022-10-15T07:28:44.421Z,32.26
2022-10-15T07:29:46.237Z,31.75
2022-10-15T07:30:47.895Z,31.22
2022-10-15T07:31:49.630Z,30.48
2022-10-15T07:32:53.686Z,30.98
2022-10-15T07:33:55.452Z,30.44
2022-10-15T07:34:57.091Z,30.70
2022-10-15T07:35:58.941Z,31.21
2022-10-15T07:37:00.749Z,31.73
2022-10-15T07:38:02.963Z,29.04
2022-10-15T07:39:04.633Z,30.06
2022-10-15T07:40:07.537Z,30.53
2022-10-15T07:41:11.304Z,32.57
2022-10-15T07:42:17.128Z,32.43
2022-10-15T07:43:18.787Z,29.83
2022-10-15T07:44:20.490Z,29.95
2022-10-15T07:45:22.853Z,31.91
2022-10-15T07:46:24.689Z,31.13
2022-10-15T07:47:29.960Z,30.90
2022-10-15T07:48:32.321Z,31.24
2022-10-15T07:49:33.969Z,31.47
2022-10-15T07:50:37.272Z,30.72
2022-10-15T07:51:42.706Z,32.26
2022-10-15T07:52:44.472Z,31.46
2022-10-15T07:53:47.405Z,31.08
2022-10-15T07:54:49.093Z,30.35
2022-10-15T07:55:51.485Z,30.31
2022-10-15T07:56:53.140Z,30.12
2022-10-15T07:57:58.347Z,31.82
2022-10-15T07:59:00.034Z,30.84
2022-10-15T08:00:01.701Z,30.42
2022-10-15T08:01:05.985Z,31.43
2022-10-15T08:02:16.774Z,30.92
2022-10-15T08:03:18.525Z,31.18
2022-10-15T08:04:20.629Z,30.02
2022-10-15T08:05:24.344Z,30.77
2022-10-15T08:06:26.116Z,29.88
2022-10-15T08:07:27.884Z,29.36
2022-10-15T08:08:30.465Z,29.17
2022-10-15T08:09:32.096Z,29.15
2022-10-15T08:10:33.894Z,29.05
2022-10-15T08:11:35.548Z,28.68
2022-10-15T08:12:37.292Z,28.91
2022-10-15T08:13:43.271Z,29.38
2022-10-15T08:14:44.952Z,28.63
2022-10-15T08:15:46.617Z,28.94
2022-10-15T08:16:48.305Z,31.42
2022-10-15T08:17:50.116Z,29.68
2022-10-15T08:19:58.557Z,27.66
2022-10-15T08:21:01.306Z,29.10
2022-10-15T08:22:03.119Z,28.79
2022-10-15T08:23:05.943Z,29.72
2022-10-15T08:24:07.802Z,30.72
2022-10-15T08:25:09.909Z,30.85
2022-10-15T08:26:11.681Z,32.24
2022-10-15T08:27:13.325Z,30.80
2022-10-15T08:28:15.907Z,30.21
2022-10-15T08:29:17.778Z,29.56
2022-10-15T08:30:19.556Z,28.64
2022-10-15T08:31:21.242Z,27.67
2022-10-15T08:32:23.120Z,28.75
2022-10-15T08:33:25.072Z,28.49
2022-10-15T08:34:27.224Z,28.08
2022-10-15T08:35:28.916Z,27.75
2022-10-15T08:36:30.733Z,28.83
2022-10-15T08:37:32.407Z,27.61
2022-10-15T08:38:34.905Z,27.05
2022-10-15T08:39:36.595Z,26.78
2022-10-15T08:40:42.394Z,27.59
2022-10-15T08:41:53.246Z,27.30
2022-10-15T08:42:55.874Z,27.21
2022-10-15T08:43:59.302Z,26.81
2022-10-15T08:45:31.436Z,27.32
2022-10-15T08:46:37.675Z,26.92
2022-10-15T08:47:48.110Z,27.14
2022-10-15T08:48:59.747Z,26.49
2022-10-15T08:50:20.197Z,27.90
2022-10-15T08:51:28.219Z,26.70
2022-10-15T08:52:32.765Z,25.31
2022-10-15T08:53:45.833Z,26.92
2022-10-15T08:54:47.931Z,27.36
2022-10-15T08:55:54.097Z,27.34
2022-10-15T08:57:11.182Z,26.32
2022-10-15T08:58:21.167Z,25.11
2022-10-15T08:59:34.772Z,25.62
2022-10-15T09:01:03.809Z,26.67
2022-10-15T09:02:17.948Z,25.61
2022-10-15T09:03:30.711Z,25.68
2022-10-15T09:04:42.225Z,25.96
2022-10-15T09:05:53.279Z,25.73
2022-10-15T09:07:27.097Z,23.55
2022-10-15T09:08:31.741Z,25.71
2022-10-15T09:09:49.037Z,24.67
2022-10-15T09:10:55.285Z,25.19
2022-10-15T09:12:27.993Z,24.04
2022-10-15T09:14:49.013Z,23.70
2022-10-15T09:15:57.414Z,23.95
2022-10-15T09:17:06.828Z,24.71
2022-10-15T09:18:23.137Z,24.91
2022-10-15T09:19:29.518Z,23.18
2022-10-15T09:20:36.009Z,23.57
2022-10-15T09:21:38.237Z,22.62
2022-10-15T09:22:40.059Z,24.34
2022-10-15T09:23:44.319Z,22.84
2022-10-15T09:24:46.798Z,23.30
2022-10-15T09:26:13.710Z,23.37
2022-10-15T09:27:37.352Z,23.57
2022-10-15T09:28:52.209Z,23.18
2022-10-15T09:30:04.826Z,23.95
2022-10-15T09:31:13.404Z,24.04
2022-10-15T09:32:34.243Z,24.42
2022-10-15T09:33:38.526Z,24.30
2022-10-15T09:34:52.909Z,23.78
2022-10-15T09:36:13.929Z,23.40
2022-10-15T09:37:25.874Z,27.76
2022-10-15T09:38:43.874Z,60.06
2022-10-15T09:40:16.138Z,59.97
2022-10-15T09:41:39.619Z,37.43
2022-10-15T09:42:44.754Z,29.56
2022-10-15T09:43:55.955Z,29.78
2022-10-15T09:45:09.025Z,26.44
2022-10-15T09:46:11.712Z,25.79
2022-10-15T09:47:32.358Z,24.20
2022-10-15T09:48:46.879Z,22.59
2022-10-15T09:49:48.661Z,22.12
2022-10-15T09:51:00.160Z,27.80
2022-10-15T09:52:18.912Z,24.62
2022-10-15T09:53:59.889Z,21.61
2022-10-15T09:55:30.653Z,24.65
2022-10-15T09:56:38.957Z,23.57
2022-10-15T09:57:41.855Z,22.18
2022-10-15T09:58:54.123Z,21.91
2022-10-15T10:00:01.178Z,22.70
2022-10-15T10:01:06.103Z,22.54
2022-10-15T10:02:15.480Z,22.59
2022-10-15T10:03:17.892Z,21.85
2022-10-15T10:04:20.849Z,21.80
2022-10-15T10:05:30.748Z,21.93
2022-10-15T10:06:32.800Z,22.66
2022-10-15T10:07:37.012Z,22.59
2022-10-15T10:08:51.282Z,22.97
2022-10-15T10:09:59.887Z,23.00
2022-10-15T10:11:04.165Z,22.26
2022-10-15T10:12:08.762Z,21.29
2022-10-15T10:13:29.940Z,23.05
2022-10-15T10:14:52.802Z,21.56
2022-10-15T10:15:59.160Z,21.38
2022-10-15T10:17:09.644Z,21.58
2022-10-15T10:18:22.872Z,21.09
2022-10-15T10:19:24.500Z,21.65
2022-10-15T10:20:31.344Z,20.95
2022-10-15T10:21:37.180Z,20.37
2022-10-15T10:22:52.702Z,20.22
2022-10-15T10:23:54.423Z,20.73
2022-10-15T10:24:56.080Z,21.45
2022-10-15T10:26:04.197Z,21.09
2022-10-15T10:27:20.003Z,21.13
2022-10-15T10:28:27.644Z,20.62
2022-10-15T10:29:36.569Z,21.91
2022-10-15T10:30:53.907Z,21.06
2022-10-15T10:31:56.640Z,20.95
2022-10-15T10:33:02.437Z,20.23
2022-10-15T10:34:04.307Z,20.63
2022-10-15T10:35:15.722Z,20.38
2022-10-15T10:36:26.806Z,21.42
2022-10-15T10:37:29.571Z,21.71
2022-10-15T10:38:41.437Z,20.65
2022-10-15T10:39:45.007Z,20.70
2022-10-15T10:40:52.290Z,21.21
2022-10-15T10:42:06.619Z,21.33
2022-10-15T10:43:17.085Z,20.90
2022-10-15T10:44:36.857Z,20.54
2022-10-15T10:45:38.731Z,21.66
2022-10-15T10:46:40.413Z,21.40
2022-10-15T10:47:42.531Z,21.98
2022-10-15T10:48:51.402Z,21.27
2022-10-15T10:49:55.815Z,20.67
2022-10-15T10:51:09.072Z,20.38
2022-10-15T10:52:22.568Z,20.86
2022-10-15T10:53:25.666Z,21.40
2022-10-15T10:54:30.793Z,20.02
2022-10-15T10:55:39.088Z,21.18
2022-10-15T10:56:43.820Z,19.99
2022-10-15T10:57:55.951Z,20.58
2022-10-15T10:59:11.634Z,20.96
2022-10-15T11:00:36.516Z,20.82
2022-10-15T11:01:38.258Z,20.55
2022-10-15T11:02:43.818Z,20.34
2022-10-15T11:03:46.165Z,20.72
2022-10-15T11:04:47.914Z,21.02
2022-10-15T11:06:00.522Z,21.08
2022-10-15T11:07:39.428Z,20.16
2022-10-15T11:08:58.262Z,19.97
2022-10-15T11:10:04.136Z,20.12
2022-10-15T11:11:23.864Z,20.34
2022-10-15T11:12:39.538Z,20.42
2022-10-15T11:13:57.158Z,19.83
2022-10-15T11:15:25.278Z,19.86
2022-10-15T11:16:57.440Z,20.50
2022-10-15T11:18:30.229Z,19.88
2022-10-15T11:21:10.665Z,20.40
2022-10-15T11:22:28.480Z,20.34
2022-10-15T11:23:46.734Z,19.95
2022-10-15T11:25:20.075Z,17.72
2022-10-15T11:26:52.435Z,19.70
2022-10-15T11:28:55.697Z,19.46
2022-10-15T11:30:34.245Z,19.65
2022-10-15T11:32:16.777Z,20.54
2022-10-15T11:33:46.603Z,18.84
2022-10-15T11:35:52.467Z,17.31
2022-10-15T11:37:04.658Z,18.03
2022-10-15T11:38:38.418Z,18.68
2022-10-15T11:40:04.666Z,19.42
2022-10-15T11:41:27.559Z,18.98
2022-10-15T11:42:41.073Z,18.71
2022-10-15T11:43:48.446Z,19.63
2022-10-15T11:45:08.463Z,20.32
2022-10-15T11:46:24.615Z,18.36
2022-10-15T11:47:26.175Z,19.90
2022-10-15T11:48:56.541Z,20.82
2022-10-15T11:50:25.002Z,19.70
2022-10-15T11:52:03.728Z,18.84
2022-10-15T11:53:32.788Z,18.28
2022-10-15T11:54:56.298Z,18.43
2022-10-15T11:56:04.013Z,19.49
2022-10-15T11:57:11.903Z,18.79
2022-10-15T11:58:36.069Z,18.28
2022-10-15T11:59:47.737Z,18.33
2022-10-15T12:00:54.777Z,18.95
2022-10-15T12:02:06.441Z,19.31
2022-10-15T12:03:18.343Z,18.25
2022-10-15T12:04:32.858Z,19.29
2022-10-15T12:05:46.648Z,17.98
2022-10-15T12:06:54.339Z,18.09
2022-10-15T12:07:57.147Z,17.46
2022-10-15T12:09:04.254Z,17.74
2022-10-15T12:10:11.905Z,17.58
2022-10-15T12:11:22.071Z,17.84
2022-10-15T12:12:38.499Z,17.50
2022-10-15T12:13:54.526Z,17.87
2022-10-15T12:15:30.584Z,16.96
2022-10-15T12:17:02.387Z,18.33
2022-10-15T12:18:32.316Z,17.43
2022-10-15T12:19:48.558Z,17.94
2022-10-15T12:20:50.433Z,16.43
2022-10-15T12:21:55.035Z,16.28
2022-10-15T12:23:03.324Z,16.04
2022-10-15T12:24:26.786Z,16.80
2022-10-15T12:25:34.479Z,16.33
2022-10-15T12:26:37.011Z,15.92
2022-10-15T12:27:39.716Z,16.46
2022-10-15T12:28:50.439Z,15.98
2022-10-15T12:30:04.217Z,14.68
2022-10-15T12:31:06.495Z,15.18
2022-10-15T12:32:28.718Z,15.71
2022-10-15T12:33:39.293Z,14.71
2022-10-15T12:34:43.836Z,15.87
2022-10-15T12:35:57.926Z,14.82
2022-10-15T12:37:03.715Z,14.83
2022-10-15T12:38:18.132Z,14.28
2022-10-15T12:39:47.782Z,14.29
2022-10-15T12:40:56.459Z,15.64
2022-10-15T12:41:59.718Z,15.42
2022-10-15T12:43:12.322Z,15.36
2022-10-15T12:44:31.993Z,15.66
2022-10-15T12:45:49.670Z,14.31
2022-10-15T12:46:52.006Z,15.53
2022-10-15T12:47:56.407Z,16.08
2022-10-15T12:48:58.234Z,15.66
2022-10-15T12:50:06.399Z,15.75
2022-10-15T12:51:17.105Z,16.62
2022-10-15T12:52:49.681Z,15.42
2022-10-15T12:53:56.214Z,16.46
2022-10-15T12:55:23.322Z,18.31
2022-10-15T12:56:36.899Z,23.50
2022-10-15T12:57:38.840Z,16.87
2022-10-15T12:58:46.436Z,15.95
2022-10-15T12:59:58.303Z,15.74
2022-10-15T13:01:44.073Z,16.03
2022-10-15T13:02:48.050Z,17.79
2022-10-15T13:03:50.995Z,16.86
2022-10-15T13:04:52.752Z,16.56
2022-10-15T13:05:55.363Z,17.58
2022-10-15T13:07:14.878Z,17.28
2022-10-15T13:08:24.503Z,17.37
2022-10-15T13:09:30.519Z,16.97
2022-10-15T13:10:41.051Z,18.91
2022-10-15T13:11:47.719Z,17.85
2022-10-15T13:12:57.381Z,17.53
2022-10-15T13:14:15.273Z,18.06
2022-10-15T13:15:17.434Z,18.24
2022-10-15T13:16:22.201Z,20.81
2022-10-15T13:17:24.276Z,19.42
2022-10-15T13:18:29.963Z,17.65
2022-10-15T13:19:39.627Z,18.35
2022-10-15T13:20:45.392Z,18.31
2022-10-15T13:21:54.275Z,17.70
2022-10-15T13:23:18.744Z,18.56
2022-10-15T13:24:45.634Z,18.72
2022-10-15T13:25:50.152Z,17.81
2022-10-15T13:26:55.830Z,17.89
2022-10-15T13:27:57.439Z,17.43
2022-10-15T13:28:59.234Z,18.61
2022-10-15T13:30:05.674Z,20.06
2022-10-15T13:31:27.563Z,20.73
2022-10-15T13:32:40.085Z,18.79
2022-10-15T13:33:46.196Z,18.38
2022-10-15T13:34:48.492Z,18.80
2022-10-15T13:35:50.458Z,24.53
2022-10-15T13:36:54.918Z,26.22
2022-10-15T13:37:58.592Z,23.01
2022-10-15T13:39:07.909Z,19.37
2022-10-15T13:40:21.803Z,19.00
2022-10-15T13:41:31.469Z,18.96
2022-10-15T13:42:34.346Z,18.95
2022-10-15T13:43:36.104Z,20.29
2022-10-15T13:44:37.810Z,18.80
2022-10-15T13:45:39.448Z,20.47
2022-10-15T13:46:41.104Z,19.53
2022-10-15T13:47:48.913Z,17.93
2022-10-15T13:49:09.230Z,21.28
2022-10-15T13:50:23.153Z,19.43
2022-10-15T13:51:33.330Z,18.23
2022-10-15T13:52:40.332Z,19.17
2022-10-15T13:53:42.575Z,19.76
2022-10-15T13:54:46.948Z,19.20
2022-10-15T13:55:52.617Z,20.61
2022-10-15T13:56:58.658Z,19.47
2022-10-15T13:58:05.232Z,18.35
2022-10-15T13:59:07.135Z,19.48
2022-10-15T14:00:20.822Z,21.12
2022-10-15T14:01:26.119Z,20.22
2022-10-15T14:02:28.170Z,19.44
2022-10-15T14:03:32.156Z,20.19
2022-10-15T14:04:33.908Z,20.00
2022-10-15T14:05:35.879Z,19.85
2022-10-15T14:06:41.654Z,28.97
2022-10-15T14:07:43.405Z,28.49
2022-10-15T14:08:46.753Z,25.74
2022-10-15T14:09:49.479Z,20.12
2022-10-15T14:10:54.471Z,20.13
2022-10-15T14:12:00.633Z,20.05
2022-10-15T14:13:05.312Z,23.94
2022-10-15T14:14:28.102Z,21.22
2022-10-15T14:15:52.818Z,20.02
2022-10-15T14:16:57.453Z,21.96
2022-10-15T14:17:59.307Z,20.62
2022-10-15T14:19:07.336Z,20.79
2022-10-15T14:20:27.184Z,19.80
2022-10-15T14:21:32.344Z,20.59
2022-10-15T14:22:35.482Z,20.66
2022-10-15T14:23:37.541Z,20.50
2022-10-15T14:24:40.358Z,19.31
2022-10-15T14:25:42.059Z,18.54
2022-10-15T14:26:44.907Z,17.68
2022-10-15T14:27:46.932Z,19.30
2022-10-15T14:28:52.172Z,19.30
2022-10-15T14:29:57.039Z,19.73
2022-10-15T14:30:59.401Z,23.62
2022-10-15T14:32:01.484Z,23.29
2022-10-15T14:33:03.273Z,20.98
2022-10-15T14:34:26.220Z,113.63
2022-10-15T14:35:34.029Z,159.04
2022-10-15T14:36:42.544Z,91.74
2022-10-15T14:37:44.273Z,51.44
2022-10-15T14:38:46.145Z,46.94